Time;durP1;ratioP1;P1;durP2;ratioP2;P2;SDS_P1;SDS_P2;PMS_P1;PMS_P2;Temp;Humidity;BMP_temperature;BMP_pressure;BME280_temperature;BME280_humidity;BME280_pressure;Samples;Min_cycle;Max_cycle;Signal;HPM_P1;HPM_P2
2021/09/04 00:00:04;;;;;;;14.20;12.83;;;20.50;65.80;;;;;;5054027;28;20449;-72
2021/09/04 00:02:31;;;;;;;14.63;13.10;;;20.50;65.80;;;;;;5053918;28;20472;-72
2021/09/04 00:04:58;;;;;;;15.60;13.63;;;20.40;65.80;;;;;;5053896;28;20465;-72
2021/09/04 00:07:27;;;;;;;17.60;13.80;;;20.40;66.10;;;;;;5053623;28;20943;-72
2021/09/04 00:09:54;;;;;;;14.80;13.30;;;20.40;66.30;;;;;;5053895;28;20450;-72
2021/09/04 00:12:21;;;;;;;15.30;13.80;;;20.40;66.60;;;;;;5053354;28;20987;-72
2021/09/04 00:14:49;;;;;;;14.70;12.33;;;20.40;66.70;;;;;;5053820;28;20439;-72
2021/09/04 00:17:16;;;;;;;16.77;13.90;;;20.40;66.90;;;;;;5053890;28;20450;-72
2021/09/04 00:19:42;;;;;;;15.03;13.53;;;20.30;66.90;;;;;;5053712;28;20495;-72
2021/09/04 00:22:09;;;;;;;13.47;11.93;;;20.30;67.00;;;;;;5053635;28;20466;-72
2021/09/04 00:24:36;;;;;;;14.23;12.90;;;20.30;67.00;;;;;;5053349;28;20481;-72
2021/09/04 00:27:03;;;;;;;14.87;13.30;;;20.30;67.10;;;;;;5053642;28;20449;-72
2021/09/04 00:29:30;;;;;;;13.90;12.33;;;20.20;67.60;;;;;;5053617;28;20449;-72
2021/09/04 00:31:58;;;;;;;16.73;13.20;;;20.20;66.80;;;;;;5053502;28;20465;-72
2021/09/04 00:34:24;;;;;;;15.93;13.87;;;20.20;67.00;;;;;;5055629;28;20430;-72
2021/09/04 00:36:51;;;;;;;14.73;13.20;;;20.10;66.90;;;;;;5054453;28;20446;-72
2021/09/04 00:39:18;;;;;;;15.07;13.67;;;20.10;67.10;;;;;;5053547;28;20453;-72
2021/09/04 00:41:45;;;;;;;20.10;14.43;;;20.10;67.30;;;;;;5054713;28;20469;-72
2021/09/04 00:44:16;;;;;;;16.40;14.70;;;20.00;67.40;;;;;;5055038;28;20482;-72
2021/09/04 00:46:43;;;;;;;15.57;13.97;;;20.00;67.50;;;;;;5055298;28;20436;-72
2021/09/04 00:49:11;;;;;;;14.60;13.10;;;20.00;67.80;;;;;;5055242;28;20932;-75
2021/09/04 00:51:38;;;;;;;15.37;13.20;;;20.00;68.00;;;;;;5053260;28;20888;-74
2021/09/04 00:54:06;;;;;;;15.03;13.43;;;20.00;68.40;;;;;;5053041;28;20928;-75
2021/09/04 00:56:33;;;;;;;15.40;13.83;;;20.00;68.70;;;;;;5053070;28;20912;-75
2021/09/04 00:59:03;;;;;;;23.70;15.10;;;20.00;68.90;;;;;;5053265;28;20452;-75
2021/09/04 01:01:30;;;;;;;16.00;14.37;;;19.90;68.90;;;;;;5052913;28;20919;-75
2021/09/04 01:03:57;;;;;;;15.67;13.93;;;19.90;68.90;;;;;;5053132;28;20488;-75
2021/09/04 01:06:25;;;;;;;16.10;13.70;;;19.90;68.90;;;;;;5053238;28;20449;-75
2021/09/04 01:08:52;;;;;;;15.23;13.80;;;19.90;69.00;;;;;;5053156;28;20449;-75
2021/09/04 01:11:18;;;;;;;17.70;13.57;;;19.90;69.10;;;;;;5052805;28;20453;-74
2021/09/04 01:13:45;;;;;;;16.17;13.60;;;19.90;69.20;;;;;;5052814;28;20448;-75
2021/09/04 01:16:12;;;;;;;17.23;14.67;;;19.80;69.30;;;;;;5053225;28;20430;-75
2021/09/04 01:18:39;;;;;;;16.37;14.70;;;19.80;69.50;;;;;;5052789;28;20931;-75
2021/09/04 01:21:07;;;;;;;15.40;13.40;;;19.80;69.60;;;;;;5053050;28;20452;-75
2021/09/04 01:23:35;;;;;;;15.50;13.90;;;19.80;69.80;;;;;;5052579;28;20987;-75
2021/09/04 01:26:04;;;;;;;18.50;14.00;;;19.80;69.80;;;;;;5052664;28;20441;-75
2021/09/04 01:28:32;;;;;;;17.63;14.60;;;19.70;69.80;;;;;;5052646;28;20999;-75
2021/09/04 01:30:58;;;;;;;19.77;15.83;;;19.70;69.80;;;;;;5052978;28;20445;-75
2021/09/04 01:33:25;;;;;;;18.57;15.23;;;19.70;70.00;;;;;;5052907;28;20465;-74
2021/09/04 01:35:52;;;;;;;19.30;14.03;;;19.70;70.20;;;;;;5054489;28;20441;-75
2021/09/04 01:38:19;;;;;;;15.77;13.67;;;19.60;70.20;;;;;;5056733;28;20449;-75
2021/09/04 01:40:46;;;;;;;19.37;15.70;;;19.60;70.40;;;;;;5056782;28;20445;-75
2021/09/04 01:43:14;;;;;;;19.30;16.03;;;19.60;70.50;;;;;;5056530;28;20464;-75
2021/09/04 01:45:41;;;;;;;20.13;17.43;;;19.60;70.80;;;;;;5056615;28;20430;-76
2021/09/04 01:48:08;;;;;;;18.73;15.17;;;19.50;70.70;;;;;;5056250;28;20445;-75
2021/09/04 01:50:35;;;;;;;16.97;14.83;;;19.50;70.90;;;;;;5056569;28;20442;-75
2021/09/04 01:53:01;;;;;;;19.63;15.63;;;19.50;71.20;;;;;;5056481;28;20466;-75
2021/09/04 01:55:28;;;;;;;21.90;16.67;;;19.50;71.40;;;;;;5056130;28;20445;-75
2021/09/04 01:57:55;;;;;;;19.87;16.20;;;19.40;71.50;;;;;;5056092;28;20936;-75
2021/09/04 02:00:23;;;;;;;18.10;15.50;;;19.40;71.70;;;;;;5056301;28;20468;-75
2021/09/04 02:02:49;;;;;;;23.70;15.73;;;19.40;71.80;;;;;;5056183;28;20465;-75
2021/09/04 02:05:16;;;;;;;17.80;15.90;;;19.40;71.90;;;;;;5056185;28;20868;-75
2021/09/04 02:07:43;;;;;;;17.40;15.70;;;19.30;71.90;;;;;;5056222;28;20446;-75
2021/09/04 02:10:11;;;;;;;18.37;15.20;;;19.30;72.10;;;;;;5056049;28;20456;-75
2021/09/04 02:12:37;;;;;;;18.60;16.60;;;19.30;72.10;;;;;;5056066;28;20862;-75
2021/09/04 02:15:07;;;;;;;17.60;14.90;;;19.30;72.30;;;;;;5056030;28;20437;-75
2021/09/04 02:17:36;;;;;;;24.73;17.57;;;19.30;72.40;;;;;;5056047;28;20434;-75
2021/09/04 02:20:04;;;;;;;17.50;14.73;;;19.30;72.40;;;;;;5055976;28;20434;-74
2021/09/04 02:22:31;;;;;;;17.83;14.97;;;19.30;72.10;;;;;;5055845;28;20466;-75
2021/09/04 02:24:57;;;;;;;19.30;16.77;;;19.20;71.90;;;;;;5055766;28;21034;-75
2021/09/04 02:27:24;;;;;;;19.03;15.30;;;19.10;71.70;;;;;;5055804;28;20445;-75
2021/09/04 02:29:51;;;;;;;17.43;15.13;;;19.10;71.70;;;;;;5055780;28;20441;-75
2021/09/04 02:32:18;;;;;;;18.27;15.53;;;19.10;71.70;;;;;;5055793;28;20469;-74
2021/09/04 02:34:46;;;;;;;17.30;13.80;;;19.00;71.70;;;;;;5055884;28;20441;-75
2021/09/04 02:37:12;;;;;;;22.73;15.63;;;19.00;71.90;;;;;;5055743;28;20446;-75
2021/09/04 02:39:39;;;;;;;17.10;14.90;;;18.90;71.90;;;;;;5055720;28;20821;-75
2021/09/04 02:42:06;;;;;;;16.57;13.93;;;18.90;71.90;;;;;;5055493;28;20468;-74
2021/09/04 02:44:33;;;;;;;20.97;15.47;;;18.90;71.60;;;;;;5055218;28;20474;-74
2021/09/04 02:46:59;;;;;;;17.60;15.13;;;18.90;71.60;;;;;;5056307;28;20817;-74
2021/09/04 02:49:26;;;;;;;17.50;15.07;;;18.90;71.70;;;;;;5055466;28;20442;-74
2021/09/04 02:51:54;;;;;;;19.97;15.33;;;18.80;71.60;;;;;;5055496;28;20462;-74
2021/09/04 02:54:21;;;;;;;18.30;15.17;;;18.80;71.70;;;;;;5055504;28;20449;-74
2021/09/04 02:56:48;;;;;;;19.67;15.03;;;18.80;71.90;;;;;;5055393;28;20453;-75
2021/09/04 02:59:14;;;;;;;21.20;14.80;;;18.70;71.70;;;;;;5055428;28;20453;-75
2021/09/04 03:01:41;;;;;;;20.27;15.87;;;18.70;71.70;;;;;;5055139;28;20469;-74
2021/09/04 03:04:08;;;;;;;17.40;14.20;;;18.70;71.60;;;;;;5055083;28;20481;-74
2021/09/04 03:06:34;;;;;;;17.93;15.20;;;18.60;71.70;;;;;;5055148;28;20452;-75
2021/09/04 03:09:02;;;;;;;18.57;15.00;;;18.60;71.70;;;;;;5054765;28;20936;-75
2021/09/04 03:11:29;;;;;;;15.67;14.17;;;18.60;71.60;;;;;;5054594;28;20461;-74
2021/09/04 03:13:56;;;;;;;18.97;14.73;;;18.60;71.60;;;;;;5054608;28;20499;-74
2021/09/04 03:16:23;;;;;;;19.77;15.67;;;18.50;71.70;;;;;;5054860;28;20454;-74
2021/09/04 03:18:49;;;;;;;17.57;15.67;;;18.50;71.90;;;;;;5054820;28;20442;-74
2021/09/04 03:21:17;;;;;;;16.77;14.97;;;18.50;71.80;;;;;;5054723;28;20796;-74
2021/09/04 03:23:44;;;;;;;16.27;14.67;;;18.50;72.00;;;;;;5054676;28;20453;-74
2021/09/04 03:26:12;;;;;;;17.07;14.73;;;18.40;71.90;;;;;;5054660;28;20453;-74
2021/09/04 03:28:39;;;;;;;18.13;14.60;;;18.40;71.80;;;;;;5054648;28;20449;-75
2021/09/04 03:31:05;;;;;;;19.47;15.87;;;18.40;72.00;;;;;;5054300;28;20962;-75
2021/09/04 03:33:32;;;;;;;18.60;15.47;;;18.30;72.00;;;;;;5054478;28;20469;-74
2021/09/04 03:35:59;;;;;;;19.07;15.10;;;18.30;72.30;;;;;;5054204;28;20434;-74
2021/09/04 03:38:25;;;;;;;19.63;15.30;;;18.30;72.70;;;;;;5054451;28;20445;-75
2021/09/04 03:40:52;;;;;;;18.13;16.17;;;18.20;72.70;;;;;;5054447;28;20441;-75
2021/09/04 03:43:20;;;;;;;20.20;15.90;;;18.20;72.90;;;;;;5054313;28;20472;-74
2021/09/04 03:45:47;;;;;;;17.83;14.47;;;18.20;72.80;;;;;;5054277;28;20534;-74
2021/09/04 03:48:13;;;;;;;18.03;16.10;;;18.20;72.90;;;;;;5054300;28;20445;-75
2021/09/04 03:50:40;;;;;;;21.20;15.77;;;18.10;72.80;;;;;;5054242;28;20445;-75
2021/09/04 03:53:07;;;;;;;19.53;16.07;;;18.10;72.90;;;;;;5054126;28;20835;-75
2021/09/04 03:55:34;;;;;;;22.53;17.20;;;18.20;73.30;;;;;;5054188;28;20437;-75
2021/09/04 03:58:00;;;;;;;23.30;18.00;;;18.10;73.50;;;;;;5053610;28;20438;-75
2021/09/04 04:00:28;;;;;;;20.63;16.77;;;18.10;73.60;;;;;;5054088;28;20484;-75
2021/09/04 04:02:55;;;;;;;26.90;18.97;;;18.10;73.90;;;;;;5053679;28;20519;-75
2021/09/04 04:05:22;;;;;;;22.70;16.70;;;18.10;74.20;;;;;;5053903;28;20875;-75
2021/09/04 04:07:49;;;;;;;23.10;15.63;;;18.10;75.10;;;;;;5053659;28;20452;-75
2021/09/04 04:10:15;;;;;;;20.37;16.60;;;18.10;74.20;;;;;;5053710;28;20445;-75
2021/09/04 04:12:42;;;;;;;19.40;15.70;;;18.10;73.90;;;;;;5054457;28;20470;-74
2021/09/04 04:15:10;;;;;;;21.30;17.30;;;18.00;73.80;;;;;;5053773;28;20437;-74
2021/09/04 04:17:38;;;;;;;20.93;15.87;;;18.00;73.80;;;;;;5053451;28;20940;-74
2021/09/04 04:20:06;;;;;;;19.13;15.93;;;18.00;73.90;;;;;;5053713;28;20445;-74
2021/09/04 04:22:33;;;;;;;23.07;17.70;;;18.00;74.10;;;;;;5053709;28;20461;-74
2021/09/04 04:24:59;;;;;;;21.03;17.17;;;17.90;74.00;;;;;;5053500;28;20470;-74
2021/09/04 04:27:26;;;;;;;17.80;15.50;;;17.90;73.80;;;;;;5053618;28;20448;-74
2021/09/04 04:29:53;;;;;;;19.73;17.43;;;17.90;73.70;;;;;;5053631;28;20445;-74
2021/09/04 04:32:19;;;;;;;18.30;16.00;;;17.90;73.80;;;;;;5053488;28;20462;-74
2021/09/04 04:34:47;;;;;;;19.50;16.70;;;17.80;74.00;;;;;;5053500;28;20441;-74
2021/09/04 04:37:14;;;;;;;25.10;16.53;;;17.90;74.40;;;;;;5053494;28;20453;-74
2021/09/04 04:39:41;;;;;;;20.00;15.50;;;17.80;74.20;;;;;;5053450;28;20434;-74
2021/09/04 04:42:08;;;;;;;24.33;17.30;;;17.80;74.10;;;;;;5053359;28;20489;-74
2021/09/04 04:44:34;;;;;;;22.40;17.53;;;17.80;74.20;;;;;;5053293;28;20473;-74
2021/09/04 04:47:01;;;;;;;28.07;20.87;;;17.80;74.50;;;;;;5053023;28;20795;-74
2021/09/04 04:49:28;;;;;;;25.37;19.73;;;17.80;74.80;;;;;;5053343;28;20445;-74
2021/09/04 04:51:56;;;;;;;26.97;21.57;;;17.80;75.10;;;;;;5053240;28;20465;-74
2021/09/04 04:54:22;;;;;;;26.77;21.50;;;17.80;75.40;;;;;;5053245;28;20445;-74
2021/09/04 04:56:50;;;;;;;26.17;20.87;;;17.70;75.80;;;;;;5053248;28;20473;-74
2021/09/04 04:59:17;;;;;;;29.40;21.33;;;17.70;76.10;;;;;;5053207;28;20453;-75
2021/09/04 05:01:43;;;;;;;27.30;19.93;;;17.70;76.40;;;;;;5052839;28;20461;-75
2021/09/04 05:04:10;;;;;;;28.00;22.23;;;17.70;76.50;;;;;;5053115;28;20445;-74
2021/09/04 05:06:37;;;;;;;31.03;22.10;;;17.70;76.80;;;;;;5053025;28;20449;-74
2021/09/04 05:09:05;;;;;;;26.63;21.63;;;17.70;76.90;;;;;;5053129;28;20449;-75
2021/09/04 05:11:31;;;;;;;29.53;21.83;;;17.80;77.20;;;;;;5055280;28;20464;-75
2021/09/04 05:13:58;;;;;;;29.20;22.47;;;17.70;77.20;;;;;;5057186;28;20448;-75
2021/09/04 05:16:25;;;;;;;26.73;19.90;;;17.70;77.40;;;;;;5057137;28;20465;-75
2021/09/04 05:18:51;;;;;;;27.77;22.00;;;17.70;77.60;;;;;;5057089;28;20453;-75
2021/09/04 05:21:18;;;;;;;27.10;22.63;;;17.70;77.80;;;;;;5056964;28;20450;-74
2021/09/04 05:23:45;;;;;;;27.70;21.20;;;17.70;78.20;;;;;;5056731;28;20962;-74
2021/09/04 05:26:13;;;;;;;37.20;24.50;;;17.70;78.70;;;;;;5056888;28;20503;-74
2021/09/04 05:28:40;;;;;;;28.20;22.93;;;17.70;79.10;;;;;;5056946;28;20857;-74
2021/09/04 05:31:07;;;;;;;39.63;30.07;;;17.70;79.70;;;;;;5056610;28;20791;-74
2021/09/04 05:33:33;;;;;;;40.83;28.00;;;17.70;80.40;;;;;;5056848;28;20466;-74
2021/09/04 05:36:00;;;;;;;39.67;29.53;;;17.70;81.30;;;;;;5056975;28;20441;-74
2021/09/04 05:38:27;;;;;;;40.53;30.13;;;17.80;82.30;;;;;;5056478;28;20892;-74
2021/09/04 05:40:54;;;;;;;41.97;33.00;;;17.80;82.70;;;;;;5056684;28;20441;-74
2021/09/04 05:43:22;;;;;;;37.93;31.30;;;17.90;83.20;;;;;;5056217;28;20984;-74
2021/09/04 05:45:49;;;;;;;39.33;31.30;;;17.90;83.30;;;;;;5056505;28;20485;-74
2021/09/04 05:48:15;;;;;;;39.37;29.60;;;17.90;83.70;;;;;;5056569;28;20453;-75
2021/09/04 05:50:42;;;;;;;42.00;32.17;;;18.00;84.20;;;;;;5056208;28;20960;-75
2021/09/04 05:53:09;;;;;;;46.57;34.80;;;18.00;84.20;;;;;;5056377;28;20469;-75
2021/09/04 05:55:36;;;;;;;46.70;36.00;;;18.00;84.40;;;;;;5056554;28;20433;-75
2021/09/04 05:58:03;;;;;;;41.60;29.60;;;18.10;84.60;;;;;;5056436;28;20787;-75
2021/09/04 06:00:31;;;;;;;49.60;34.50;;;18.10;84.90;;;;;;5056644;28;20434;-75
2021/09/04 06:02:57;;;;;;;36.43;29.67;;;18.10;84.90;;;;;;5056287;28;20470;-75
2021/09/04 06:05:24;;;;;;;45.20;34.83;;;18.10;84.70;;;;;;5056175;28;20472;-75
2021/09/04 06:07:51;;;;;;;43.27;32.93;;;18.20;85.20;;;;;;5056243;28;20452;-75
2021/09/04 06:10:18;;;;;;;46.17;35.07;;;18.20;84.90;;;;;;5056037;28;20460;-75
2021/09/04 06:12:45;;;;;;;41.43;34.00;;;18.30;85.10;;;;;;5055897;28;20474;-76
2021/09/04 06:15:11;;;;;;;48.00;35.10;;;18.30;85.80;;;;;;5056080;28;20867;-75
2021/09/04 06:17:40;;;;;;;40.40;33.37;;;18.40;85.80;;;;;;5056128;28;20503;-76
2021/09/04 06:20:08;;;;;;;41.20;32.33;;;18.40;84.70;;;;;;5055307;28;20940;-75
2021/09/04 06:22:35;;;;;;;32.73;25.33;;;18.50;84.50;;;;;;5055401;28;20469;-73
2021/09/04 06:25:02;;;;;;;42.33;30.47;;;18.50;83.00;;;;;;5055434;28;20870;-73
2021/09/04 06:27:29;;;;;;;47.80;36.43;;;18.70;80.80;;;;;;5055856;28;20442;-73
2021/09/04 06:29:55;;;;;;;51.97;36.17;;;18.80;81.40;;;;;;5055863;28;20441;-73
2021/09/04 06:32:22;;;;;;;50.47;38.00;;;18.90;81.50;;;;;;5055183;28;20472;-73
2021/09/04 06:34:50;;;;;;;46.97;35.10;;;19.10;81.30;;;;;;5055702;28;20525;-73
2021/09/04 06:37:17;;;;;;;52.63;38.43;;;19.10;80.90;;;;;;5055637;28;20438;-73
2021/09/04 06:39:44;;;;;;;46.77;36.87;;;19.10;80.50;;;;;;5055527;28;20449;-73
2021/09/04 06:42:10;;;;;;;53.17;36.13;;;19.20;80.40;;;;;;5055470;28;20468;-74
2021/09/04 06:44:37;;;;;;;59.40;37.37;;;19.20;80.10;;;;;;5055431;28;20449;-73
2021/09/04 06:47:04;;;;;;;55.90;38.57;;;19.20;79.50;;;;;;5054706;28;21010;-74
2021/09/04 06:49:31;;;;;;;52.87;37.37;;;19.20;79.70;;;;;;5055161;28;20856;-74
2021/09/04 06:51:59;;;;;;;51.37;39.07;;;19.20;79.90;;;;;;5055314;28;20465;-73
2021/09/04 06:54:25;;;;;;;45.23;34.80;;;19.20;79.80;;;;;;5055252;28;20446;-73
2021/09/04 06:56:52;;;;;;;44.30;33.83;;;19.20;79.60;;;;;;5055207;28;20450;-73
2021/09/04 06:59:19;;;;;;;46.63;34.33;;;19.30;79.30;;;;;;5055175;28;20446;-74
2021/09/04 07:01:47;;;;;;;41.37;31.50;;;19.20;79.10;;;;;;5055107;28;20465;-73
2021/09/04 07:04:14;;;;;;;41.77;30.53;;;19.30;79.10;;;;;;5054810;28;20446;-73
2021/09/04 07:06:41;;;;;;;41.77;30.43;;;19.40;78.60;;;;;;5054697;28;20995;-73
2021/09/04 07:09:09;;;;;;;35.20;28.90;;;19.50;78.20;;;;;;5055059;28;20544;-73
2021/09/04 07:11:36;;;;;;;33.87;27.93;;;19.60;77.50;;;;;;5054560;28;20477;-73
2021/09/04 07:14:04;;;;;;;41.20;30.13;;;19.70;77.00;;;;;;5054910;28;20441;-73
2021/09/04 07:16:30;;;;;;;37.50;30.20;;;19.80;76.50;;;;;;5054613;28;21039;-73
2021/09/04 07:18:57;;;;;;;38.80;29.20;;;20.00;76.10;;;;;;5054848;28;20452;-73
2021/09/04 07:21:24;;;;;;;37.00;30.30;;;20.10;75.70;;;;;;5054780;28;20442;-73
2021/09/04 07:23:51;;;;;;;36.70;29.33;;;20.10;75.10;;;;;;5054839;28;20442;-73
2021/09/04 07:26:19;;;;;;;41.97;30.50;;;20.20;74.70;;;;;;5057744;28;20485;-73
2021/09/04 07:28:45;;;;;;;40.43;30.87;;;20.30;74.40;;;;;;5055870;28;20445;-73
2021/09/04 07:31:12;;;;;;;43.30;31.27;;;20.30;74.00;;;;;;5055164;28;20448;-73
2021/09/04 07:33:39;;;;;;;41.60;31.07;;;20.40;73.80;;;;;;5053741;28;20465;-73
2021/09/04 07:36:08;;;;;;;40.00;31.07;;;20.40;73.50;;;;;;5054632;28;20441;-73
2021/09/04 07:38:35;;;;;;;39.70;30.70;;;20.40;73.20;;;;;;5054493;28;20485;-73
2021/09/04 07:41:02;;;;;;;40.97;30.17;;;20.50;73.20;;;;;;5054443;28;20452;-73
2021/09/04 07:43:30;;;;;;;42.03;31.77;;;20.50;72.90;;;;;;5054033;28;20983;-74
2021/09/04 07:45:57;;;;;;;42.20;32.30;;;20.60;72.80;;;;;;5054251;28;20478;-74
2021/09/04 07:48:25;;;;;;;37.67;30.07;;;20.60;72.60;;;;;;5053970;28;20814;-74
2021/09/04 07:50:52;;;;;;;40.13;29.43;;;20.60;72.30;;;;;;5053965;28;20936;-74
2021/09/04 07:53:18;;;;;;;40.33;28.40;;;20.70;72.10;;;;;;5053806;28;20990;-73
2021/09/04 07:55:45;;;;;;;37.70;29.30;;;20.70;71.80;;;;;;5054107;28;20441;-74
2021/09/04 07:58:12;;;;;;;42.27;33.33;;;20.80;71.70;;;;;;5054113;28;20445;-74
2021/09/04 08:00:41;;;;;;;42.40;31.10;;;20.90;71.50;;;;;;5053739;28;20446;-74
2021/09/04 08:03:08;;;;;;;38.20;31.10;;;20.90;71.30;;;;;;5053911;28;20468;-73
2021/09/04 08:05:34;;;;;;;43.97;31.70;;;21.00;71.00;;;;;;5054162;28;20481;-73
2021/09/04 08:08:01;;;;;;;45.70;31.57;;;21.00;70.80;;;;;;5053849;28;20449;-73
2021/09/04 08:10:28;;;;;;;37.47;30.10;;;21.10;70.60;;;;;;5053756;28;20465;-74
2021/09/04 08:12:55;;;;;;;39.90;30.33;;;21.10;70.40;;;;;;5053774;28;20461;-73
2021/09/04 08:15:21;;;;;;;45.80;30.47;;;21.20;70.20;;;;;;5053490;28;20453;-73
2021/09/04 08:17:50;;;;;;;39.30;30.80;;;21.20;70.10;;;;;;5053798;28;20445;-74
2021/09/04 08:20:16;;;;;;;40.63;30.90;;;21.30;69.90;;;;;;5053712;28;20512;-73
2021/09/04 08:22:43;;;;;;;38.87;30.20;;;21.30;69.50;;;;;;5053610;28;20461;-73
2021/09/04 08:25:10;;;;;;;41.77;30.53;;;21.40;69.50;;;;;;5054236;28;20448;-73
2021/09/04 08:27:37;;;;;;;38.27;29.80;;;21.50;69.20;;;;;;5053650;28;20899;-74
2021/09/04 08:30:04;;;;;;;40.13;30.37;;;21.60;68.90;;;;;;5053568;28;20445;-74
2021/09/04 08:32:31;;;;;;;39.70;30.17;;;21.60;68.40;;;;;;5054063;28;20465;-73
2021/09/04 08:34:59;;;;;;;38.90;30.40;;;21.70;68.30;;;;;;5053252;28;20920;-73
2021/09/04 08:37:26;;;;;;;41.00;31.43;;;21.70;68.00;;;;;;5053487;28;20528;-74
2021/09/04 08:39:52;;;;;;;39.07;30.13;;;21.80;67.90;;;;;;5053120;28;20931;-74
2021/09/04 08:42:20;;;;;;;37.97;28.17;;;21.80;67.70;;;;;;5053319;28;20470;-73
2021/09/04 08:44:47;;;;;;;38.63;29.63;;;21.90;67.60;;;;;;5053224;28;20449;-74
2021/09/04 08:47:13;;;;;;;36.83;28.50;;;21.90;67.40;;;;;;5053301;28;20481;-74
2021/09/04 08:49:40;;;;;;;37.67;29.80;;;22.00;67.20;;;;;;5053317;28;20503;-74
2021/09/04 08:52:09;;;;;;;36.10;28.00;;;22.10;66.70;;;;;;5053061;28;20967;-74
2021/09/04 08:54:35;;;;;;;33.40;27.50;;;22.20;66.40;;;;;;5053352;28;20453;-73
2021/09/04 08:57:02;;;;;;;38.37;29.17;;;22.20;66.10;;;;;;5053253;28;20448;-73
2021/09/04 08:59:29;;;;;;;35.23;28.50;;;22.30;65.70;;;;;;5053251;28;20446;-73
2021/09/04 09:01:57;;;;;;;39.67;29.03;;;22.40;65.70;;;;;;5052851;28;20995;-74
2021/09/04 09:04:25;;;;;;;40.70;30.10;;;22.50;65.30;;;;;;5052918;28;20953;-73
2021/09/04 09:06:51;;;;;;;32.60;26.80;;;22.50;65.00;;;;;;5052778;28;20994;-73
2021/09/04 09:09:21;;;;;;;33.10;28.20;;;22.60;64.70;;;;;;5053166;28;20477;-73
2021/09/04 09:11:49;;;;;;;32.90;26.87;;;22.70;64.40;;;;;;5052778;28;20500;-73
2021/09/04 09:14:16;;;;;;;33.00;26.40;;;22.70;64.10;;;;;;5053092;28;20454;-73
2021/09/04 09:16:50;;;;;;;28.97;24.40;;;22.80;63.80;;;;;;5053380;28;20442;-70
2021/09/04 09:19:18;;;;;;;28.97;23.93;;;22.90;63.30;;;;;;5053053;28;20452;-70
2021/09/04 09:21:44;;;;;;;30.17;24.90;;;23.10;62.80;;;;;;5053207;28;20465;-70
2021/09/04 09:24:13;;;;;;;27.43;23.53;;;23.20;62.50;;;;;;5052596;28;20956;-70
2021/09/04 09:26:51;;;;;;;28.60;24.13;;;23.30;62.00;;;;;;5052439;28;20480;-70
2021/09/04 09:29:23;;;;;;;31.20;23.83;;;23.30;61.60;;;;;;5052750;28;20437;-70
2021/09/04 09:31:50;;;;;;;31.80;25.80;;;23.50;61.30;;;;;;5052795;28;20484;-70
2021/09/04 09:34:17;;;;;;;33.20;26.73;;;23.70;60.80;;;;;;5052461;28;20936;-70
2021/09/04 09:36:49;;;;;;;30.67;26.70;;;23.90;60.20;;;;;;5052860;28;20444;-70
2021/09/04 09:39:15;;;;;;;29.43;24.23;;;24.10;59.70;;;;;;5052489;28;20442;-70
2021/09/04 09:41:51;;;;;;;32.87;27.93;;;24.30;59.10;;;;;;5052707;28;20475;-70
2021/09/04 09:44:19;;;;;;;31.10;27.00;;;24.50;58.40;;;;;;5052720;28;20441;-70
2021/09/04 09:46:49;;;;;;;36.90;28.60;;;24.60;58.00;;;;;;5052778;28;20481;-70
2021/09/04 09:49:16;;;;;;;33.03;25.30;;;24.70;57.60;;;;;;5052747;28;20868;-70
2021/09/04 09:51:43;;;;;;;32.23;26.67;;;24.90;57.30;;;;;;5052648;28;20465;-70
2021/09/04 09:54:11;;;;;;;31.33;26.20;;;25.20;56.90;;;;;;5052734;28;20792;-70
2021/09/04 09:56:39;;;;;;;28.63;25.60;;;25.50;56.20;;;;;;5053863;28;20441;-70
2021/09/04 09:59:11;;;;;;;32.57;27.10;;;25.70;55.50;;;;;;5056326;28;20445;-70
2021/09/04 10:14:58;;;;;;;29.33;26.13;;;26.20;53.70;;;;;;5132283;27;20519;-70
2021/09/04 10:17:26;;;;;;;25.57;23.00;;;27.90;50.70;;;;;;5131470;28;20465;-70
2021/09/04 10:19:53;;;;;;;24.50;21.90;;;28.20;49.70;;;;;;5131534;27;20890;-72
2021/09/04 10:22:20;;;;;;;24.77;22.20;;;28.50;48.70;;;;;;5131504;28;20433;-71
2021/09/04 10:24:50;;;;;;;20.80;18.80;;;28.80;47.90;;;;;;5131065;28;20438;-71
2021/09/04 10:27:31;;;;;;;21.83;19.67;;;29.10;47.20;;;;;;5131335;28;20466;-71
2021/09/04 10:29:59;;;;;;;21.03;18.83;;;29.60;46.70;;;;;;5131439;27;20433;-69
2021/09/04 10:32:27;;;;;;;22.13;19.80;;;30.00;46.10;;;;;;5131861;28;20426;-71
2021/09/04 10:35:06;;;;;;;20.67;18.80;;;30.60;44.90;;;;;;5131253;28;20438;-71
2021/09/04 10:37:44;;;;;;;20.63;18.53;;;31.10;43.40;;;;;;5131052;28;20510;-71
2021/09/04 10:40:13;;;;;;;19.70;17.93;;;31.60;41.70;;;;;;5131204;27;20462;-71
2021/09/04 10:42:41;;;;;;;18.17;16.57;;;32.10;40.90;;;;;;5130998;28;20560;-68
2021/09/04 10:45:12;;;;;;;18.73;17.13;;;32.60;39.60;;;;;;5130738;28;20798;-68
2021/09/04 10:47:44;;;;;;;19.97;18.07;;;33.10;38.50;;;;;;5131029;28;20519;-70
2021/09/04 10:50:16;;;;;;;18.23;16.50;;;33.60;37.30;;;;;;5130973;28;20470;-70
2021/09/04 10:52:57;;;;;;;19.03;17.47;;;34.10;36.00;;;;;;5131012;28;20436;-70
2021/09/04 10:55:26;;;;;;;18.50;16.87;;;34.70;34.70;;;;;;5131061;28;20448;-69
2021/09/04 10:57:54;;;;;;;18.27;16.70;;;35.20;33.90;;;;;;5130726;28;20510;-70
2021/09/04 11:00:24;;;;;;;18.17;16.67;;;35.60;33.00;;;;;;5130789;28;20446;-71
2021/09/04 11:02:53;;;;;;;20.07;18.37;;;36.00;32.20;;;;;;5130623;28;20458;-71
2021/09/04 11:05:38;;;;;;;21.30;19.40;;;36.30;31.10;;;;;;5130639;28;20536;-71
2021/09/04 11:08:07;;;;;;;18.50;17.00;;;36.70;30.40;;;;;;5130267;27;21014;-71
2021/09/04 11:10:35;;;;;;;19.43;17.77;;;37.00;29.90;;;;;;5130963;28;20207;-71
2021/09/04 11:13:34;;;;;;;19.67;18.07;;;37.30;29.60;;;;;;5130095;28;20675;-71
2021/09/04 11:16:27;;;;;;;18.23;16.63;;;37.70;29.50;;;;;;5116434;28;20200;-71
2021/09/04 11:18:55;;;;;;;20.27;18.30;;;38.00;28.80;;;;;;5117540;27;20216;-71
2021/09/04 11:21:22;;;;;;;20.25;18.40;;;38.30;28.40;;;;;;5116752;28;20196;-71
2021/09/04 11:23:50;;;;;;;19.73;18.13;;;38.60;28.10;;;;;;5116671;28;20225;-71
2021/09/04 11:26:17;;;;;;;18.83;17.33;;;38.80;27.60;;;;;;5116579;28;20249;-71
2021/09/04 11:28:45;;;;;;;18.67;16.95;;;39.00;27.20;;;;;;5116446;28;20205;-71
2021/09/04 11:31:17;;;;;;;17.38;15.98;;;39.20;27.00;;;;;;5116483;28;20207;-71
2021/09/04 11:33:52;;;;;;;17.10;15.70;;;39.40;27.10;;;;;;5116151;28;20632;-71
2021/09/04 11:36:29;;;;;;;17.27;15.85;;;39.50;26.50;;;;;;5116390;28;20247;-71
2021/09/04 11:38:56;;;;;;;18.60;16.92;;;39.70;26.60;;;;;;5115954;28;20656;-71
2021/09/04 11:41:22;;;;;;;17.70;16.30;;;39.80;26.30;;;;;;5116362;28;20554;-71
2021/09/04 11:43:49;;;;;;;18.30;16.80;;;39.90;26.00;;;;;;5116196;28;20220;-71
2021/09/04 11:46:23;;;;;;;16.85;15.45;;;40.00;26.30;;;;;;5116147;28;20204;-71
2021/09/04 11:48:53;;;;;;;18.35;16.85;;;40.20;25.90;;;;;;5116258;28;20267;-71
2021/09/04 11:51:20;;;;;;;17.77;15.98;;;40.40;25.60;;;;;;5116198;28;20180;-71
2021/09/04 11:53:47;;;;;;;15.68;14.20;;;40.60;25.10;;;;;;5116042;28;20204;-71
2021/09/04 11:56:17;;;;;;;19.33;15.98;;;40.70;25.40;;;;;;5115958;28;20201;-72
2021/09/04 11:58:44;;;;;;;20.17;18.08;;;41.00;25.10;;;;;;5116029;28;20200;-71
2021/09/04 12:01:11;;;;;;;18.17;16.48;;;41.10;24.70;;;;;;5116493;28;20209;-71
2021/09/04 12:03:38;;;;;;;15.45;14.05;;;41.30;24.20;;;;;;5115805;28;20228;-72
2021/09/04 12:06:08;;;;;;;20.08;16.33;;;41.40;24.40;;;;;;5115367;28;20208;-71
2021/09/04 12:08:37;;;;;;;20.83;18.63;;;41.50;24.20;;;;;;5115540;28;20647;-71
2021/09/04 12:11:07;;;;;;;20.60;18.70;;;41.50;23.80;;;;;;5116212;28;20227;-71
2021/09/04 12:13:34;;;;;;;21.00;19.13;;;41.40;24.10;;;;;;5115455;28;20211;-71
2021/09/04 12:16:02;;;;;;;19.95;18.25;;;41.30;23.40;;;;;;5115189;28;20604;-72
2021/09/04 12:18:30;;;;;;;19.70;18.00;;;41.20;23.60;;;;;;5115573;28;20204;-71
2021/09/04 12:20:58;;;;;;;19.52;17.92;;;41.10;23.60;;;;;;5115577;28;20203;-71
2021/09/04 12:23:29;;;;;;;19.63;17.95;;;40.90;23.80;;;;;;5115424;28;20223;-71
2021/09/04 12:26:06;;;;;;;21.95;20.05;;;40.90;23.60;;;;;;5114208;28;20720;-71
2021/09/04 12:28:33;;;;;;;22.63;20.48;;;40.90;23.70;;;;;;5115452;28;20196;-75
2021/09/04 12:31:04;;;;;;;24.75;22.65;;;40.80;24.10;;;;;;5115486;28;20532;-75
2021/09/04 12:33:31;;;;;;;24.13;22.00;;;40.70;24.30;;;;;;5115415;28;20185;-75
2021/09/04 12:35:59;;;;;;;23.05;20.95;;;40.70;24.00;;;;;;5114839;28;20562;-75
2021/09/04 12:38:29;;;;;;;22.90;20.90;;;40.80;24.10;;;;;;5115276;28;20295;-75
2021/09/04 12:41:15;;;;;;;23.35;21.25;;;40.90;24.20;;;;;;5115026;28;20209;-75
2021/09/04 12:43:50;;;;;;;24.90;22.60;;;41.10;24.40;;;;;;5115087;28;20209;-71